Fitzhugh, Oklahoma
Current Conditions -  °F | °C
As of 1:55 AM on Thursday 23 Oct 2014 (Local Time) from KADH Reporting Station
Overcast Overcast  
Wind Chill: 63°   Ceiling: 7000
Heat Index: 63°   Visibility: 10mi
Dew Point: 55°   Wind: 9mph
Humidity: 77%   Direction: 150°SSE
Pressure: 30.13"   Gusts: NA
Location:  34.67°N, 96.78°W
Report Text: KADH 230655Z AUTO 15008KT 10SM OVC070 17/13 A3013 RMK AO2
Loading
Personal Weather Stations






























Interactive Weather Map
Tropical Storm Tracking
New forecast layout! Learn more

10-Day Weather Forecast

Advertisements
Track Severe Weather on mobile